createdAt,value
2023-11-24T00:00:58.939Z,99778.59
2023-11-24T00:04:13.894Z,99779.63
2023-11-24T00:07:22.843Z,99771.06
2023-11-24T00:10:31.669Z,99767.63
2023-11-24T00:13:46.911Z,99769.28
2023-11-24T00:16:55.579Z,99752.56
2023-11-24T00:20:03.827Z,99744.88
2023-11-24T00:23:12.475Z,99730.00
2023-11-24T00:26:27.824Z,99720.41
2023-11-24T00:29:36.394Z,99722.34
2023-11-24T00:32:50.886Z,99699.69
2023-11-24T00:35:59.819Z,99689.88
2023-11-24T00:39:14.858Z,99684.19
2023-11-24T00:42:17.594Z,99679.47
2023-11-24T00:45:32.907Z,99677.72
2023-11-24T00:48:42.102Z,99664.75
2023-11-24T00:51:50.875Z,99661.16
2023-11-24T00:54:59.416Z,99655.38
2023-11-24T00:58:07.866Z,99651.69
2023-11-24T01:01:16.728Z,99650.91
2023-11-24T01:04:31.845Z,99649.87
2023-11-24T01:07:40.835Z,99636.97
2023-11-24T01:10:49.326Z,99643.78
2023-11-24T01:14:03.819Z,99640.09
2023-11-24T01:17:06.016Z,99646.16
2023-11-24T01:20:27.831Z,99652.34
2023-11-24T01:23:29.729Z,99644.88
2023-11-24T01:26:44.844Z,99641.22
2023-11-24T01:29:53.836Z,99620.81
2023-11-24T01:33:02.737Z,99613.94
2023-11-24T01:36:17.863Z,99606.25
2023-11-24T01:39:20.048Z,99580.88
2023-11-24T01:42:34.838Z,99586.19
2023-11-24T01:45:51.863Z,99572.44
2023-11-24T01:48:54.779Z,99564.09
2023-11-24T01:52:10.855Z,99545.09
2023-11-24T01:55:13.025Z,99544.06
2023-11-24T01:58:27.838Z,99550.94
2023-11-24T02:01:43.899Z,99548.88
2023-11-24T02:04:52.429Z,99533.88
2023-11-24T02:08:07.833Z,99549.47
2023-11-24T02:11:09.799Z,99531.78
2023-11-24T02:14:24.830Z,99527.78
2023-11-24T02:17:39.979Z,99511.47
2023-11-24T02:20:49.039Z,99509.91
2023-11-24T02:23:57.834Z,99503.09
2023-11-24T02:27:13.140Z,99488.31
2023-11-24T02:30:27.869Z,99479.56
2023-11-24T02:33:36.749Z,99460.28
2023-11-24T02:36:45.836Z,99447.06
2023-11-24T02:39:54.696Z,99450.53
2023-11-24T02:43:03.859Z,99442.09
2023-11-24T02:46:20.810Z,99423.91
2023-11-24T02:49:23.031Z,99410.16
2023-11-24T02:52:37.817Z,99410.97
2023-11-24T02:55:39.938Z,99410.69
2023-11-24T02:58:54.821Z,99393.81
2023-11-24T03:02:03.616Z,99408.84
2023-11-24T03:05:18.818Z,99415.53
2023-11-24T03:08:20.880Z,99404.66
2023-11-24T03:11:35.856Z,99405.97
2023-11-24T03:14:38.018Z,99408.91
2023-11-24T03:17:52.853Z,99420.06
2023-11-24T03:21:01.460Z,99403.38
2023-11-24T03:24:16.821Z,99366.31
2023-11-24T03:27:31.866Z,99372.75
2023-11-24T03:30:40.470Z,99368.03
2023-11-24T03:33:48.871Z,99352.72
2023-11-24T03:36:57.673Z,99348.22
2023-11-24T03:40:06.950Z,99337.66
2023-11-24T03:43:15.664Z,99329.22
2023-11-24T03:46:30.839Z,99330.00
2023-11-24T03:49:39.601Z,99330.00
2023-11-24T03:52:47.827Z,99315.22
2023-11-24T03:56:02.888Z,99301.19
2023-11-24T03:59:04.802Z,99294.81
2023-11-24T04:02:19.852Z,99292.16
2023-11-24T04:05:28.678Z,99294.81
2023-11-24T04:08:37.824Z,99289.03
2023-11-24T04:11:52.833Z,99222.47
2023-11-24T04:14:54.805Z,99277.66
2023-11-24T04:18:09.990Z,99272.09
2023-11-24T04:21:24.849Z,99254.41
2023-11-24T04:24:26.733Z,99249.66
2023-11-24T04:27:48.888Z,99227.19
2023-11-24T04:30:50.763Z,99231.13
2023-11-24T04:34:06.937Z,99232.72
2023-11-24T04:37:15.779Z,99239.91
2023-11-24T04:40:30.810Z,99237.50
2023-11-24T04:43:45.833Z,99241.47
2023-11-24T04:46:54.674Z,99230.41
2023-11-24T04:50:02.880Z,99218.50
2023-11-24T04:53:17.804Z,99207.69
2023-11-24T04:56:26.797Z,99200.53
2023-11-24T04:59:40.181Z,99187.34
2023-11-24T05:02:55.798Z,99195.78
2023-11-24T05:06:10.825Z,99197.41
2023-11-24T05:09:13.044Z,99200.03
2023-11-24T05:12:27.855Z,99183.91
2023-11-24T05:15:36.330Z,99177.84
2023-11-24T05:18:50.847Z,99171.22
2023-11-24T05:21:53.146Z,99164.38
2023-11-24T05:25:07.880Z,99164.66
2023-11-24T05:28:17.053Z,99153.81
2023-11-24T05:31:32.828Z,99168.09
2023-11-24T05:34:47.857Z,99152.25
2023-11-24T05:37:50.002Z,99145.88
2023-11-24T05:41:04.796Z,99145.88
2023-11-24T05:44:06.912Z,99139.53
2023-11-24T05:47:21.813Z,99129.00
2023-11-24T05:50:30.839Z,99123.19
2023-11-24T05:53:45.799Z,99117.37
2023-11-24T05:56:54.643Z,99120.28
2023-11-24T06:00:10.801Z,99116.59
2023-11-24T06:03:18.899Z,99106.03
2023-11-24T06:06:33.826Z,99124.00
2023-11-24T06:09:49.812Z,99107.91
2023-11-24T06:12:58.888Z,99124.28
2023-11-24T06:16:07.838Z,99107.66
2023-11-24T06:19:22.893Z,99105.03
2023-11-24T06:22:37.830Z,99097.88
2023-11-24T06:25:46.675Z,99108.44
2023-11-24T06:29:08.854Z,99111.38
2023-11-24T06:32:23.900Z,99120.38
2023-11-24T06:35:25.884Z,99126.22
2023-11-24T06:38:40.845Z,99129.66
2023-11-24T06:41:49.400Z,99110.59
2023-11-24T06:45:04.802Z,99111.94
2023-11-24T06:48:13.587Z,99123.56
2023-11-24T06:51:21.830Z,99120.44
2023-11-24T06:54:36.845Z,99125.16
2023-11-24T06:57:51.897Z,99122.28
2023-11-24T07:01:00.695Z,99125.19
2023-11-24T07:04:09.939Z,99125.19
2023-11-24T07:07:18.295Z,99125.44
2023-11-24T07:10:32.890Z,99129.94
2023-11-24T07:13:34.759Z,99130.75
2023-11-24T07:16:50.817Z,99137.91
2023-11-24T07:20:05.803Z,99126.25
2023-11-24T07:23:13.812Z,99131.00
2023-11-24T07:26:28.807Z,99126.00
2023-11-24T07:29:50.818Z,99113.53
2023-11-24T07:33:00.599Z,99122.81
2023-11-24T07:36:10.053Z,99119.63
2023-11-24T07:39:18.788Z,99135.75
2023-11-24T07:42:28.081Z,99145.84
2023-11-24T07:45:36.958Z,99149.53
2023-11-24T07:48:51.831Z,99158.28
2023-11-24T07:52:00.475Z,99156.66
2023-11-24T07:55:08.863Z,99154.31
2023-11-24T07:58:17.760Z,99149.25
2023-11-24T08:01:32.899Z,99156.16
2023-11-24T08:04:41.882Z,99144.75
2023-11-24T08:07:50.597Z,99121.44
2023-11-24T08:10:58.805Z,99137.56
2023-11-24T08:14:07.642Z,99130.38
2023-11-24T08:17:22.819Z,99138.84
2023-11-24T08:20:24.697Z,99139.34
2023-11-24T08:23:39.807Z,99118.38
2023-11-24T08:27:01.808Z,99124.69
2023-11-24T08:30:11.203Z,99114.16
2023-11-24T08:33:25.816Z,99124.34
2023-11-24T08:36:34.604Z,99132.69
2023-11-24T08:39:49.836Z,99107.25
2023-11-24T08:42:52.471Z,99112.78
2023-11-24T08:46:07.906Z,99110.50
2023-11-24T08:49:16.858Z,99115.59
2023-11-24T08:52:25.353Z,99124.09
2023-11-24T08:55:39.814Z,99119.06
2023-11-24T08:58:49.627Z,99126.34
2023-11-24T09:02:04.867Z,99116.13
2023-11-24T09:05:15.881Z,99110.78
2023-11-24T09:08:31.798Z,99092.59
2023-11-24T09:11:47.806Z,99089.13
2023-11-24T09:14:56.850Z,99073.19
2023-11-24T09:18:05.741Z,99069.53
2023-11-24T09:21:20.833Z,99060.38
2023-11-24T09:24:36.069Z,99059.69
2023-11-24T09:27:50.866Z,99050.75
2023-11-24T09:30:52.864Z,99047.56
2023-11-24T09:34:07.875Z,99025.19
2023-11-24T09:37:16.985Z,99035.91
2023-11-24T09:40:31.817Z,99028.66
2023-11-24T09:43:40.687Z,99023.81
2023-11-24T09:46:57.927Z,98995.66
2023-11-24T09:50:07.853Z,98988.25
2023-11-24T09:53:25.845Z,99009.00
2023-11-24T09:56:33.868Z,98981.31
2023-11-24T09:59:49.817Z,98975.72
2023-11-24T10:03:07.888Z,98968.34
2023-11-24T10:06:23.834Z,98978.44
2023-11-24T10:09:33.836Z,98973.53
2023-11-24T10:12:50.886Z,98963.69
2023-11-24T10:15:59.882Z,98953.59
2023-11-24T10:19:22.237Z,98944.88
2023-11-24T10:22:37.835Z,98930.72
2023-11-24T10:25:46.631Z,98919.41
2023-11-24T10:29:08.821Z,98941.66
2023-11-24T10:32:19.693Z,98934.81
2023-11-24T10:35:34.819Z,98924.81
2023-11-24T10:38:45.813Z,98906.78
2023-11-24T10:41:54.834Z,98896.31
2023-11-24T10:45:15.828Z,98877.25
2023-11-24T10:48:39.856Z,98863.56
2023-11-24T10:52:00.944Z,98858.63
2023-11-24T10:55:10.725Z,98851.41
2023-11-24T10:58:27.831Z,98838.41
2023-11-24T11:01:30.196Z,98847.75
2023-11-24T11:04:48.891Z,98833.09
2023-11-24T11:08:23.853Z,98843.53
2023-11-24T11:11:52.459Z,98871.19
2023-11-24T11:15:08.839Z,98855.75
2023-11-24T11:18:17.781Z,98862.16
2023-11-24T11:21:54.831Z,98854.03
2023-11-24T11:25:25.565Z,98865.50
2023-11-24T11:28:48.066Z,98886.25
2023-11-24T11:32:01.838Z,98876.59
2023-11-24T11:35:11.955Z,98878.00
2023-11-24T11:38:24.357Z,98891.75
2023-11-24T11:41:47.800Z,98896.50
2023-11-24T11:45:02.821Z,98887.94
2023-11-24T11:48:11.892Z,98840.41
2023-11-24T11:51:20.424Z,98853.81
2023-11-24T11:54:35.025Z,98845.13
2023-11-24T11:57:49.834Z,98834.87
2023-11-24T12:00:58.704Z,98830.94
2023-11-24T12:04:07.858Z,98831.53
2023-11-24T12:07:23.972Z,98843.19
2023-11-24T12:10:32.852Z,98829.47
2023-11-24T12:13:41.654Z,98842.00
2023-11-24T12:16:56.914Z,98801.78
2023-11-24T12:20:12.878Z,98836.84
2023-11-24T12:23:23.256Z,98834.16
2023-11-24T12:26:39.821Z,98829.47
2023-11-24T12:29:55.827Z,98844.06
2023-11-24T12:33:10.845Z,98846.25
2023-11-24T12:36:19.825Z,98850.94
2023-11-24T12:39:28.846Z,98841.41
2023-11-24T12:42:45.862Z,98859.16
2023-11-24T12:46:00.921Z,98842.16
2023-11-24T12:49:12.059Z,98835.69
2023-11-24T12:52:30.839Z,98827.00
2023-11-24T12:55:35.989Z,98847.03
2023-11-24T12:58:51.824Z,98856.41
2023-11-24T13:02:00.809Z,98853.62
2023-11-24T13:05:18.291Z,98858.56
2023-11-24T13:08:33.825Z,98853.84
2023-11-24T13:11:43.305Z,98836.88
2023-11-24T13:14:58.846Z,98816.94
2023-11-24T13:18:15.847Z,98823.06
2023-11-24T13:21:32.843Z,98811.34
2023-11-24T13:24:36.833Z,98784.22
2023-11-24T13:27:53.844Z,98803.94
2023-11-24T13:31:03.885Z,98807.97
2023-11-24T13:34:13.886Z,98809.56
2023-11-24T13:37:24.087Z,98793.28
2023-11-24T13:40:33.825Z,98771.19
2023-11-24T13:43:49.801Z,98780.84
2023-11-24T13:47:00.986Z,98768.91
2023-11-24T13:50:12.792Z,98775.94
2023-11-24T13:53:28.903Z,98757.41
2023-11-24T13:56:32.769Z,98771.59
2023-11-24T13:59:48.904Z,98774.28
2023-11-24T14:02:59.033Z,98766.09
2023-11-24T14:06:15.817Z,98761.38
2023-11-24T14:09:31.806Z,98761.19
2023-11-24T14:12:42.291Z,98742.34
2023-11-24T14:15:57.846Z,98742.94
2023-11-24T14:19:02.063Z,98753.88
2023-11-24T14:22:18.728Z,98744.44
2023-11-24T14:25:34.814Z,98754.28
2023-11-24T14:28:37.787Z,98747.59
2023-11-24T14:31:54.878Z,98739.91
2023-11-24T14:35:05.691Z,98743.66
2023-11-24T14:38:22.878Z,98758.03
2023-11-24T14:41:33.645Z,98763.88
2023-11-24T14:44:45.857Z,98747.38
2023-11-24T14:48:01.844Z,98753.31
2023-11-24T14:51:17.810Z,98750.16
2023-11-24T14:54:27.810Z,98747.78
2023-11-24T14:57:38.825Z,98751.53
2023-11-24T15:00:55.828Z,98758.72
2023-11-24T15:03:59.224Z,98772.03
2023-11-24T15:07:17.892Z,98753.41
2023-11-24T15:10:34.919Z,98749.94
2023-11-24T15:13:45.151Z,98742.28
2023-11-24T15:16:55.905Z,98714.09
2023-11-24T15:20:06.381Z,98727.09
2023-11-24T15:23:22.810Z,98728.19
2023-11-24T15:26:26.403Z,98734.78
2023-11-24T15:29:48.830Z,98722.94
2023-11-24T15:32:59.617Z,98736.25
2023-11-24T15:36:09.830Z,98733.41
2023-11-24T15:39:19.759Z,98714.56
2023-11-24T15:42:36.816Z,98713.28
2023-11-24T15:45:40.162Z,98710.94
2023-11-24T15:48:56.860Z,98736.88
2023-11-24T15:52:06.873Z,98752.63
2023-11-24T15:55:24.877Z,98752.44
2023-11-24T15:58:46.851Z,98756.66
2023-11-24T16:01:54.034Z,98748.19
2023-11-24T16:05:11.814Z,98742.06
2023-11-24T16:08:28.859Z,98745.81
2023-11-24T16:11:33.248Z,98740.19
2023-11-24T16:14:49.837Z,98728.97
2023-11-24T16:17:59.927Z,98719.91
2023-11-24T16:21:10.871Z,98700.78
2023-11-24T16:24:28.874Z,98702.28
2023-11-24T16:27:41.937Z,98734.22
2023-11-24T16:30:59.177Z,98755.50
2023-11-24T16:34:14.920Z,98748.56
2023-11-24T16:37:31.894Z,98733.19
2023-11-24T16:40:36.731Z,98730.34
2023-11-24T16:43:53.813Z,98734.88
2023-11-24T16:46:59.053Z,98751.94
2023-11-24T16:50:16.812Z,98751.94
2023-11-24T16:53:34.830Z,98734.00
2023-11-24T16:56:38.952Z,98743.44
2023-11-24T16:59:56.864Z,98755.47
2023-11-24T17:03:08.074Z,98737.84
2023-11-24T17:06:19.861Z,98718.91
2023-11-24T17:09:38.806Z,98703.66
2023-11-24T17:12:42.243Z,98715.84
2023-11-24T17:15:59.840Z,98716.53
2023-11-24T17:19:04.011Z,98722.72
2023-11-24T17:22:19.885Z,98718.84
2023-11-24T17:25:35.469Z,98712.09
2023-11-24T17:28:52.312Z,98710.03
2023-11-24T17:32:00.833Z,98707.03
2023-11-24T17:35:09.455Z,98702.69
2023-11-24T17:38:23.828Z,98712.37
2023-11-24T17:41:38.839Z,98701.12
2023-11-24T17:44:40.769Z,98707.03
2023-11-24T17:47:57.879Z,98710.00
2023-11-24T17:51:00.296Z,98706.66
2023-11-24T17:54:14.862Z,98697.59
2023-11-24T17:57:23.486Z,98680.84
2023-11-24T18:00:38.863Z,98672.44
2023-11-24T18:03:47.865Z,98673.44
2023-11-24T18:06:56.631Z,98663.06
2023-11-24T18:10:04.834Z,98656.72
2023-11-24T18:13:14.221Z,98673.69
2023-11-24T18:16:29.981Z,98678.19
2023-11-24T18:19:38.989Z,98677.38
2023-11-24T18:22:48.825Z,98685.22
2023-11-24T18:25:57.974Z,98685.88
2023-11-24T18:29:12.955Z,98680.94
2023-11-24T18:32:28.820Z,98688.97
2023-11-24T18:35:37.810Z,98700.97
2023-11-24T18:38:46.740Z,98700.25
2023-11-24T18:41:55.823Z,98696.53
2023-11-24T18:45:11.865Z,98693.09
2023-11-24T18:48:27.883Z,98677.56
2023-11-24T18:51:36.813Z,98685.19
2023-11-24T18:54:48.491Z,98702.69
2023-11-24T18:58:04.844Z,98696.06
2023-11-24T19:01:21.833Z,98679.16
2023-11-24T19:04:31.941Z,98675.37
2023-11-24T19:07:50.848Z,98669.22
2023-11-24T19:10:59.905Z,98680.47
2023-11-24T19:14:15.827Z,98673.88
2023-11-24T19:17:25.200Z,98681.72
2023-11-24T19:20:40.833Z,98674.75
2023-11-24T19:23:49.822Z,98666.16
2023-11-24T19:27:06.035Z,98668.47
2023-11-24T19:30:21.840Z,98676.59
2023-11-24T19:33:27.407Z,98666.66
2023-11-24T19:36:42.829Z,98672.94
2023-11-24T19:39:58.838Z,98687.00
2023-11-24T19:43:08.807Z,98678.88
2023-11-24T19:46:19.316Z,98712.47
2023-11-24T19:49:28.120Z,98715.41
2023-11-24T19:52:44.048Z,98738.56
2023-11-24T19:55:59.817Z,98712.37
2023-11-24T19:59:15.814Z,98681.69
2023-11-24T20:02:31.934Z,98706.13
2023-11-24T20:05:48.200Z,98708.06
2023-11-24T20:08:50.917Z,98713.87
2023-11-24T20:12:07.003Z,98708.75
2023-11-24T20:15:16.628Z,98717.19
2023-11-24T20:18:25.824Z,98743.44
2023-11-24T20:21:41.831Z,98719.56
2023-11-24T20:24:51.530Z,98714.81
2023-11-24T20:28:07.879Z,98706.78
2023-11-24T20:31:33.679Z,98681.53
2023-11-24T20:34:43.413Z,98674.87
2023-11-24T20:37:53.022Z,98675.37
2023-11-24T20:41:02.349Z,98667.53
2023-11-24T20:44:18.181Z,98662.09
2023-11-24T20:47:26.882Z,98648.91
2023-11-24T20:50:42.831Z,98669.44
2023-11-24T20:53:45.169Z,98668.22
2023-11-24T20:57:00.845Z,98677.81
2023-11-24T21:00:09.811Z,98682.13
2023-11-24T21:03:18.760Z,98678.59
2023-11-24T21:06:34.815Z,98675.94
2023-11-24T21:09:43.429Z,98678.97
2023-11-24T21:12:51.816Z,98677.72
2023-11-24T21:16:07.067Z,98667.66
2023-11-24T21:19:15.707Z,98670.22
2023-11-24T21:22:30.883Z,98672.09
2023-11-24T21:25:39.715Z,98646.97
2023-11-24T21:28:47.820Z,98635.00
2023-11-24T21:32:02.809Z,98635.31
2023-11-24T21:35:05.031Z,98625.25
2023-11-24T21:38:20.980Z,98635.88
2023-11-24T21:41:29.844Z,98630.63
2023-11-24T21:44:38.761Z,98619.41
2023-11-24T21:47:53.909Z,98634.44
2023-11-24T21:51:05.534Z,98645.13
2023-11-24T21:54:13.827Z,98633.06
2023-11-24T21:57:22.643Z,98627.91
2023-11-24T22:00:31.821Z,98637.94
2023-11-24T22:03:41.300Z,98639.94
2023-11-24T22:06:55.816Z,98643.56
2023-11-24T22:10:11.916Z,98659.69
2023-11-24T22:13:20.993Z,98669.22
2023-11-24T22:16:29.501Z,98665.19
2023-11-24T22:19:38.881Z,98673.69
2023-11-24T22:22:53.805Z,98672.28
2023-11-24T22:26:08.815Z,98674.25
2023-11-24T22:29:17.066Z,98682.69
2023-11-24T22:32:31.856Z,98676.38
2023-11-24T22:35:41.348Z,98664.78
2023-11-24T22:38:56.840Z,98666.91
2023-11-24T22:42:05.593Z,98653.00
2023-11-24T22:45:14.848Z,98655.84
2023-11-24T22:48:23.711Z,98657.44
2023-11-24T22:51:33.843Z,98653.50
2023-11-24T22:54:48.807Z,98650.06
2023-11-24T22:58:03.841Z,98640.53
2023-11-24T23:01:18.942Z,98641.84
2023-11-24T23:04:27.422Z,98649.50
2023-11-24T23:07:35.849Z,98655.84
2023-11-24T23:10:44.752Z,98658.00
2023-11-24T23:13:59.824Z,98659.59
2023-11-24T23:17:09.201Z,98656.22
2023-11-24T23:20:24.957Z,98649.12
2023-11-24T23:23:27.057Z,98639.66
2023-11-24T23:26:41.811Z,98641.00
2023-11-24T23:29:57.052Z,98634.72
2023-11-24T23:33:18.012Z,98638.50
2023-11-24T23:36:33.795Z,98650.66
2023-11-24T23:39:42.707Z,98658.91
2023-11-24T23:42:51.803Z,98662.69
2023-11-24T23:46:00.588Z,98653.66
2023-11-24T23:49:16.841Z,98644.53
2023-11-24T23:52:19.067Z,98638.47
2023-11-24T23:55:37.882Z,98647.47
2023-11-24T23:58:46.849Z,98635.41
